createdAt,value
2022-11-16T00:01:04.391Z,99.67
2022-11-16T00:03:31.788Z,98.34
2022-11-16T00:06:05.672Z,98.57
2022-11-16T00:08:33.979Z,98.85
2022-11-16T00:11:05.022Z,98.68
2022-11-16T00:13:32.609Z,98.82
2022-11-16T00:15:59.399Z,98.74
2022-11-16T00:18:25.978Z,98.43
2022-11-16T00:20:52.479Z,98.47
2022-11-16T00:23:19.053Z,99.10
2022-11-16T00:25:45.861Z,98.89
2022-11-16T00:28:12.323Z,98.24
2022-11-16T00:30:38.864Z,98.87
2022-11-16T00:33:06.159Z,97.60
2022-11-16T00:35:43.208Z,97.35
2022-11-16T00:38:10.812Z,96.59
2022-11-16T00:40:37.247Z,95.82
2022-11-16T00:43:03.730Z,96.45
2022-11-16T00:45:30.398Z,97.06
2022-11-16T00:48:00.491Z,96.86
2022-11-16T00:50:28.200Z,96.86
2022-11-16T00:52:54.933Z,97.28
2022-11-16T00:55:22.602Z,96.49
2022-11-16T00:57:49.092Z,96.86
2022-11-16T01:00:17.544Z,97.32
2022-11-16T01:02:44.834Z,96.59
2022-11-16T01:05:11.397Z,97.18
2022-11-16T01:07:38.513Z,97.34
2022-11-16T01:10:06.095Z,97.25
2022-11-16T01:12:32.554Z,96.98
2022-11-16T01:14:59.353Z,96.41
2022-11-16T01:17:25.838Z,96.84
2022-11-16T01:19:52.849Z,96.94
2022-11-16T01:22:19.483Z,97.30
2022-11-16T01:24:47.057Z,97.57
2022-11-16T01:27:14.056Z,97.50
2022-11-16T01:29:43.972Z,97.38
2022-11-16T01:32:10.723Z,97.43
2022-11-16T01:34:37.454Z,97.92
2022-11-16T01:37:11.689Z,98.79
2022-11-16T01:39:40.637Z,99.09
2022-11-16T01:42:10.345Z,99.16
2022-11-16T01:44:37.028Z,98.89
2022-11-16T01:47:09.803Z,98.66
2022-11-16T01:49:38.745Z,98.65
2022-11-16T01:52:07.284Z,98.25
2022-11-16T01:54:38.074Z,100.00
2022-11-16T01:57:06.067Z,100.00
2022-11-16T01:59:39.237Z,99.60
2022-11-16T02:02:09.341Z,99.44
2022-11-16T02:04:35.941Z,98.79
2022-11-16T02:07:16.167Z,99.08
2022-11-16T02:09:55.265Z,98.79
2022-11-16T02:12:45.975Z,99.38
2022-11-16T02:15:19.132Z,99.72
2022-11-16T02:18:09.467Z,100.00
2022-11-16T02:20:39.161Z,99.83
2022-11-16T02:23:08.893Z,99.30
2022-11-16T02:25:45.880Z,99.78
2022-11-16T02:28:37.318Z,99.00
2022-11-16T02:31:05.563Z,98.42
2022-11-16T02:33:35.227Z,98.92
2022-11-16T02:36:05.912Z,99.25
2022-11-16T02:38:36.108Z,99.80
2022-11-16T02:41:09.071Z,99.89
2022-11-16T02:43:40.552Z,100.00
2022-11-16T02:46:10.665Z,99.94
2022-11-16T02:48:40.121Z,100.00
2022-11-16T02:51:07.477Z,100.00
2022-11-16T02:53:37.515Z,99.82
2022-11-16T02:56:04.081Z,99.70
2022-11-16T02:58:31.483Z,99.91
2022-11-16T03:00:58.772Z,100.00
2022-11-16T03:03:29.477Z,100.00
2022-11-16T03:06:05.238Z,100.00
2022-11-16T03:08:38.248Z,100.00
2022-11-16T03:11:26.599Z,100.00
2022-11-16T03:14:03.552Z,100.00
2022-11-16T03:16:36.870Z,100.00
2022-11-16T03:19:07.499Z,100.00
2022-11-16T03:21:37.761Z,100.00
2022-11-16T03:24:04.885Z,99.90
2022-11-16T03:26:34.850Z,100.00
2022-11-16T03:29:06.734Z,100.00
2022-11-16T03:31:46.549Z,99.95
2022-11-16T03:34:19.667Z,99.67
2022-11-16T03:36:48.213Z,100.00
2022-11-16T03:39:19.428Z,98.71
2022-11-16T03:41:48.323Z,99.78
2022-11-16T03:44:16.770Z,99.60
2022-11-16T03:46:45.729Z,99.57
2022-11-16T03:49:13.673Z,100.00
2022-11-16T03:51:41.130Z,99.21
2022-11-16T03:54:07.779Z,99.40
2022-11-16T03:56:35.502Z,98.45
2022-11-16T03:59:02.690Z,98.58
2022-11-16T04:01:30.384Z,99.20
2022-11-16T04:03:56.913Z,99.17
2022-11-16T04:06:42.846Z,99.15
2022-11-16T04:09:29.167Z,98.26
2022-11-16T04:12:14.478Z,98.09
2022-11-16T04:15:00.693Z,98.26
2022-11-16T04:17:48.083Z,97.58
2022-11-16T04:20:34.093Z,97.95
2022-11-16T04:23:23.924Z,97.42
2022-11-16T04:25:51.960Z,96.42
2022-11-16T04:28:31.433Z,96.38
2022-11-16T04:31:22.248Z,95.44
2022-11-16T04:34:14.586Z,95.66
2022-11-16T04:37:04.693Z,95.50
2022-11-16T04:39:31.546Z,96.36
2022-11-16T04:42:19.663Z,96.81
2022-11-16T04:45:07.894Z,96.03
2022-11-16T04:47:45.704Z,95.67
2022-11-16T04:50:12.608Z,95.84
2022-11-16T04:52:40.514Z,96.07
2022-11-16T04:55:10.030Z,95.44
2022-11-16T04:57:37.396Z,95.95
2022-11-16T05:00:05.753Z,95.38
2022-11-16T05:02:34.234Z,95.30
2022-11-16T05:05:01.126Z,93.85
2022-11-16T05:07:29.553Z,94.53
2022-11-16T05:10:04.036Z,93.23
2022-11-16T05:12:30.720Z,93.92
2022-11-16T05:15:00.529Z,93.24
2022-11-16T05:17:32.131Z,93.85
2022-11-16T05:20:18.958Z,92.77
2022-11-16T05:22:53.678Z,93.78
2022-11-16T05:25:20.922Z,93.44
2022-11-16T05:27:47.688Z,92.93
2022-11-16T05:30:14.366Z,92.44
2022-11-16T05:32:41.243Z,92.57
2022-11-16T05:35:09.373Z,92.96
2022-11-16T05:37:37.227Z,93.03
2022-11-16T05:40:04.189Z,92.45
2022-11-16T05:42:40.136Z,93.40
2022-11-16T05:45:08.881Z,93.33
2022-11-16T05:47:35.397Z,92.97
2022-11-16T05:50:02.877Z,92.90
2022-11-16T05:52:34.477Z,94.53
2022-11-16T05:55:05.803Z,95.13
2022-11-16T05:57:37.759Z,94.54
2022-11-16T06:00:05.362Z,94.80
2022-11-16T06:02:41.549Z,94.86
2022-11-16T06:05:14.069Z,95.42
2022-11-16T06:07:40.521Z,95.46
2022-11-16T06:10:07.176Z,95.27
2022-11-16T06:12:33.921Z,94.96
2022-11-16T06:15:00.442Z,94.64
2022-11-16T06:17:27.027Z,94.31
2022-11-16T06:19:53.883Z,95.10
2022-11-16T06:22:21.258Z,94.17
2022-11-16T06:24:48.417Z,94.11
2022-11-16T06:27:15.940Z,94.66
2022-11-16T06:29:43.812Z,94.47
2022-11-16T06:32:10.325Z,94.25
2022-11-16T06:34:36.800Z,95.05
2022-11-16T06:37:03.297Z,95.66
2022-11-16T06:39:29.813Z,95.90
2022-11-16T06:41:56.260Z,95.14
2022-11-16T06:44:22.935Z,95.82
2022-11-16T06:46:56.645Z,95.49
2022-11-16T06:49:23.476Z,94.75
2022-11-16T06:51:52.149Z,94.99
2022-11-16T06:54:18.947Z,94.87
2022-11-16T06:56:45.491Z,94.37
2022-11-16T06:59:12.307Z,93.87
2022-11-16T07:01:38.936Z,92.75
2022-11-16T07:04:12.039Z,91.83
2022-11-16T07:06:40.944Z,90.77
2022-11-16T07:09:09.111Z,91.51
2022-11-16T07:11:36.306Z,91.06
2022-11-16T07:14:03.454Z,90.81
2022-11-16T07:16:30.117Z,91.31
2022-11-16T07:19:00.708Z,91.46
2022-11-16T07:21:29.536Z,91.33
2022-11-16T07:23:57.414Z,90.75
2022-11-16T07:26:24.286Z,90.84
2022-11-16T07:28:57.697Z,91.31
2022-11-16T07:31:24.535Z,90.60
2022-11-16T07:34:10.928Z,90.60
2022-11-16T07:36:46.200Z,89.65
2022-11-16T07:39:12.809Z,90.01
2022-11-16T07:41:39.804Z,90.31
2022-11-16T07:44:28.201Z,91.72
2022-11-16T07:47:05.676Z,91.29
2022-11-16T07:49:33.674Z,90.85
2022-11-16T07:52:07.812Z,90.81
2022-11-16T07:55:01.718Z,91.24
2022-11-16T07:57:29.801Z,91.49
2022-11-16T07:59:59.829Z,90.89
2022-11-16T08:02:28.776Z,91.12
2022-11-16T08:04:55.577Z,90.33
2022-11-16T08:07:25.893Z,90.50
2022-11-16T08:09:55.684Z,90.73
2022-11-16T08:12:22.757Z,90.82
2022-11-16T08:14:49.260Z,90.87
2022-11-16T08:17:15.824Z,91.11
2022-11-16T08:19:43.388Z,90.97
2022-11-16T08:22:13.536Z,90.98
2022-11-16T08:24:41.448Z,90.68
2022-11-16T08:27:08.717Z,90.61
2022-11-16T08:29:35.300Z,89.77
2022-11-16T08:32:04.489Z,90.71
2022-11-16T08:34:33.772Z,90.82
2022-11-16T08:37:00.438Z,87.93
2022-11-16T08:39:36.671Z,88.76
2022-11-16T08:42:03.279Z,89.31
2022-11-16T08:44:29.937Z,88.26
2022-11-16T08:47:00.020Z,86.92
2022-11-16T08:49:37.520Z,85.63
2022-11-16T08:52:04.372Z,86.58
2022-11-16T08:54:32.141Z,86.86
2022-11-16T08:56:59.148Z,86.33
2022-11-16T08:59:25.939Z,85.31
2022-11-16T09:01:56.117Z,84.77
2022-11-16T09:04:23.357Z,85.62
2022-11-16T09:06:50.144Z,85.12
2022-11-16T09:09:16.689Z,84.65
2022-11-16T09:11:43.159Z,85.65
2022-11-16T09:14:09.620Z,84.45
2022-11-16T09:16:36.456Z,83.56
2022-11-16T09:19:02.931Z,79.21
2022-11-16T09:21:30.235Z,83.15
2022-11-16T09:23:57.423Z,83.99
2022-11-16T09:26:24.300Z,85.98
2022-11-16T09:28:58.259Z,87.52
2022-11-16T09:31:28.606Z,85.72
2022-11-16T09:33:58.241Z,85.68
2022-11-16T09:36:25.716Z,84.72
2022-11-16T09:39:17.758Z,83.96
2022-11-16T09:41:59.747Z,82.63
2022-11-16T09:44:38.274Z,83.84
2022-11-16T09:47:09.025Z,85.10
2022-11-16T09:49:38.058Z,83.11
2022-11-16T09:52:08.918Z,84.81
2022-11-16T09:54:40.361Z,85.71
2022-11-16T09:57:12.436Z,83.68
2022-11-16T09:59:47.863Z,81.70
2022-11-16T10:02:32.740Z,83.48
2022-11-16T10:04:59.423Z,83.83
2022-11-16T10:07:33.223Z,84.23
2022-11-16T10:09:59.724Z,83.15
2022-11-16T10:12:43.567Z,82.14
2022-11-16T10:15:25.506Z,80.44
2022-11-16T10:18:18.406Z,81.58
2022-11-16T10:21:00.301Z,79.74
2022-11-16T10:23:26.757Z,77.51
2022-11-16T10:25:56.595Z,79.01
2022-11-16T10:28:49.568Z,78.21
2022-11-16T10:31:32.353Z,79.66
2022-11-16T10:34:00.386Z,77.30
2022-11-16T10:36:30.484Z,76.22
2022-11-16T10:38:57.330Z,77.86
2022-11-16T10:41:33.313Z,77.67
2022-11-16T10:43:59.792Z,79.68
2022-11-16T10:46:44.534Z,78.92
2022-11-16T10:49:20.171Z,78.93
2022-11-16T10:51:46.750Z,76.68
2022-11-16T10:54:14.213Z,77.48
2022-11-16T10:56:42.701Z,76.82
2022-11-16T10:59:10.789Z,76.80
2022-11-16T11:01:38.757Z,77.70
2022-11-16T11:04:17.518Z,78.55
2022-11-16T11:06:44.645Z,80.61
2022-11-16T11:09:15.668Z,78.24
2022-11-16T11:12:00.855Z,77.97
2022-11-16T11:14:27.358Z,77.38
2022-11-16T11:16:53.990Z,77.59
2022-11-16T11:19:25.448Z,77.76
2022-11-16T11:21:55.832Z,77.25
2022-11-16T11:24:44.352Z,77.44
2022-11-16T11:27:08.918Z,75.67
2022-11-16T11:29:37.966Z,77.25
2022-11-16T11:32:06.380Z,77.38
2022-11-16T11:34:39.188Z,76.03
2022-11-16T11:37:07.179Z,76.59
2022-11-16T11:39:35.057Z,77.10
2022-11-16T11:42:06.744Z,77.29
2022-11-16T11:44:42.025Z,78.01
2022-11-16T11:50:14.064Z,78.01
2022-11-16T11:52:44.540Z,77.14
2022-11-16T11:55:15.499Z,78.29
2022-11-16T11:57:43.848Z,77.16
2022-11-16T12:00:14.535Z,76.60
2022-11-16T12:02:41.174Z,77.68
2022-11-16T12:05:26.429Z,77.64
2022-11-16T12:08:28.509Z,77.12
2022-11-16T12:11:00.533Z,75.81
2022-11-16T12:13:30.183Z,74.40
2022-11-16T12:16:02.961Z,76.74
2022-11-16T12:18:48.364Z,79.05
2022-11-16T12:21:17.909Z,77.65
2022-11-16T12:23:52.450Z,76.45
2022-11-16T12:26:31.685Z,75.07
2022-11-16T12:29:23.892Z,75.72
2022-11-16T12:31:53.497Z,74.10
2022-11-16T12:34:28.113Z,74.61
2022-11-16T12:36:54.581Z,73.70
2022-11-16T12:39:21.017Z,74.46
2022-11-16T12:41:47.451Z,74.94
2022-11-16T12:44:26.614Z,73.13
2022-11-16T12:47:16.393Z,75.71
2022-11-16T12:49:48.950Z,77.08
2022-11-16T12:52:15.355Z,76.57
2022-11-16T12:54:52.410Z,75.20
2022-11-16T12:57:28.385Z,76.22
2022-11-16T13:00:09.150Z,76.13
2022-11-16T13:02:41.681Z,75.47
2022-11-16T13:05:19.922Z,75.05
2022-11-16T13:08:12.809Z,74.57
2022-11-16T13:10:43.031Z,74.88
2022-11-16T13:13:35.367Z,76.17
2022-11-16T13:16:02.072Z,77.57
2022-11-16T13:18:29.854Z,75.75
2022-11-16T13:21:11.495Z,74.07
2022-11-16T13:23:58.227Z,73.21
2022-11-16T13:26:33.394Z,74.03
2022-11-16T13:28:59.862Z,72.62
2022-11-16T13:31:39.488Z,75.81
2022-11-16T13:34:07.750Z,77.06
2022-11-16T13:36:37.463Z,76.39
2022-11-16T13:39:04.850Z,75.16
2022-11-16T13:41:33.566Z,75.23
2022-11-16T13:44:00.424Z,72.97
2022-11-16T13:46:55.181Z,75.53
2022-11-16T13:49:36.839Z,75.61
2022-11-16T13:52:22.095Z,75.19
2022-11-16T13:54:55.410Z,76.36
2022-11-16T13:57:33.697Z,79.26
2022-11-16T14:00:04.921Z,77.85
2022-11-16T14:02:33.609Z,76.48
2022-11-16T14:05:01.156Z,75.20
2022-11-16T14:07:43.167Z,77.20
2022-11-16T14:10:11.195Z,76.64
2022-11-16T14:12:38.215Z,78.16
2022-11-16T14:15:14.076Z,78.41
2022-11-16T14:18:00.876Z,77.60
2022-11-16T14:20:46.892Z,78.75
2022-11-16T14:23:33.891Z,78.16
2022-11-16T14:26:11.942Z,76.06
2022-11-16T14:28:44.627Z,76.85
2022-11-16T14:31:11.127Z,75.95
2022-11-16T14:33:38.027Z,78.22
2022-11-16T14:36:06.450Z,79.70
2022-11-16T14:38:33.922Z,81.53
2022-11-16T14:41:02.157Z,82.82
2022-11-16T14:43:39.764Z,81.58
2022-11-16T14:46:08.566Z,80.68
2022-11-16T14:48:42.051Z,79.93
2022-11-16T14:51:10.794Z,79.89
2022-11-16T14:53:39.513Z,80.42
2022-11-16T14:56:13.401Z,82.11
2022-11-16T14:58:40.010Z,81.49
2022-11-16T15:01:08.199Z,81.37
2022-11-16T15:03:45.703Z,83.00
2022-11-16T15:06:15.202Z,83.14
2022-11-16T15:09:02.250Z,81.37
2022-11-16T15:11:52.552Z,81.89
2022-11-16T15:14:40.366Z,82.58
2022-11-16T15:17:07.959Z,83.96
2022-11-16T15:19:34.585Z,84.56
2022-11-16T15:22:02.174Z,85.83
2022-11-16T15:24:31.440Z,85.82
2022-11-16T15:27:26.390Z,85.65
2022-11-16T15:29:52.910Z,86.82
2022-11-16T15:32:19.454Z,87.03
2022-11-16T15:34:47.817Z,86.35
2022-11-16T15:37:15.264Z,87.05
2022-11-16T15:39:42.976Z,86.12
2022-11-16T15:42:13.753Z,84.77
2022-11-16T15:44:41.005Z,85.96
2022-11-16T15:47:11.976Z,86.68
2022-11-16T15:49:40.046Z,86.10
2022-11-16T15:52:06.906Z,87.28
2022-11-16T15:54:55.233Z,86.01
2022-11-16T15:57:23.142Z,87.07
2022-11-16T15:59:51.034Z,86.92
2022-11-16T16:02:19.079Z,85.88
2022-11-16T16:04:45.716Z,86.35
2022-11-16T16:07:13.527Z,86.52
2022-11-16T16:09:40.703Z,86.92
2022-11-16T16:12:36.679Z,87.84
2022-11-16T16:15:22.042Z,88.04
2022-11-16T16:17:49.023Z,89.87
2022-11-16T16:20:18.270Z,89.40
2022-11-16T16:22:44.771Z,89.23
2022-11-16T16:25:26.748Z,88.63
2022-11-16T16:27:53.277Z,88.91
2022-11-16T16:30:20.033Z,88.40
2022-11-16T16:32:52.881Z,87.84
2022-11-16T16:35:21.039Z,87.64
2022-11-16T16:37:51.889Z,87.76
2022-11-16T16:40:18.872Z,87.85
2022-11-16T16:42:48.115Z,88.41
2022-11-16T16:45:24.049Z,87.52
2022-11-16T16:47:50.537Z,88.38
2022-11-16T16:50:16.981Z,88.30
2022-11-16T16:52:43.497Z,88.92
2022-11-16T16:55:11.100Z,90.22
2022-11-16T16:57:37.597Z,90.27
2022-11-16T17:00:04.302Z,89.55
2022-11-16T17:02:31.006Z,90.12
2022-11-16T17:04:57.424Z,88.83
2022-11-16T17:07:23.985Z,88.54
2022-11-16T17:09:50.790Z,89.29
2022-11-16T17:12:17.258Z,89.48
2022-11-16T17:14:51.211Z,90.13
2022-11-16T17:17:21.771Z,90.16
2022-11-16T17:19:48.261Z,89.71
2022-11-16T17:22:14.936Z,90.34
2022-11-16T17:24:41.449Z,90.86
2022-11-16T17:27:08.200Z,91.23
2022-11-16T17:29:34.771Z,90.85
2022-11-16T17:32:01.293Z,91.42
2022-11-16T17:34:27.755Z,92.26
2022-11-16T17:36:55.812Z,92.59
2022-11-16T17:39:22.740Z,92.24
2022-11-16T17:41:50.080Z,92.61
2022-11-16T17:44:21.655Z,92.88
2022-11-16T17:46:48.798Z,93.80
2022-11-16T17:49:15.285Z,94.53
2022-11-16T17:51:41.823Z,94.58
2022-11-16T17:54:08.358Z,93.37
2022-11-16T17:56:34.860Z,93.79
2022-11-16T17:59:01.317Z,93.97
2022-11-16T18:01:28.412Z,94.21
2022-11-16T18:03:55.286Z,94.20
2022-11-16T18:06:22.790Z,94.57
2022-11-16T18:08:49.311Z,94.44
2022-11-16T18:11:17.442Z,94.59
2022-11-16T18:13:44.595Z,94.78
2022-11-16T18:16:12.950Z,94.11
2022-11-16T18:18:39.993Z,93.92
2022-11-16T18:21:07.356Z,94.42
2022-11-16T18:23:34.786Z,93.75
2022-11-16T18:26:03.413Z,93.12
2022-11-16T18:28:30.269Z,94.51
2022-11-16T18:31:06.841Z,94.82
2022-11-16T18:33:33.909Z,94.82
2022-11-16T18:36:00.607Z,95.01
2022-11-16T18:38:27.217Z,95.33
2022-11-16T18:41:07.576Z,94.63
2022-11-16T18:43:34.989Z,94.08
2022-11-16T18:46:01.691Z,94.25
2022-11-16T18:48:28.394Z,95.32
2022-11-16T18:51:01.949Z,95.10
2022-11-16T18:53:29.161Z,94.81
2022-11-16T18:55:58.018Z,95.42
2022-11-16T18:58:49.314Z,95.55
2022-11-16T19:01:15.502Z,95.98
2022-11-16T19:03:42.022Z,97.13
2022-11-16T19:06:10.018Z,98.31
2022-11-16T19:08:37.827Z,99.51
2022-11-16T19:11:08.768Z,98.99
2022-11-16T19:13:35.713Z,98.39
2022-11-16T19:16:02.410Z,98.94
2022-11-16T19:18:28.909Z,99.25
2022-11-16T19:21:11.874Z,99.54
2022-11-16T19:23:39.273Z,99.92
2022-11-16T19:26:06.299Z,100.00
2022-11-16T19:28:36.612Z,100.00
2022-11-16T19:31:10.308Z,100.00
2022-11-16T19:33:37.846Z,99.40
2022-11-16T19:36:12.688Z,99.61
2022-11-16T19:38:39.584Z,99.11
2022-11-16T19:41:07.096Z,98.98
2022-11-16T19:43:34.493Z,98.65
2022-11-16T19:46:02.132Z,98.04
2022-11-16T19:48:29.552Z,97.77
2022-11-16T19:50:56.071Z,98.58
2022-11-16T19:53:22.600Z,99.07
2022-11-16T19:55:55.283Z,98.96
2022-11-16T19:58:21.784Z,98.69
2022-11-16T20:00:48.284Z,98.52
2022-11-16T20:03:14.786Z,98.50
2022-11-16T20:05:41.283Z,98.90
2022-11-16T20:08:07.756Z,98.95
2022-11-16T20:10:34.215Z,99.16
2022-11-16T20:13:00.730Z,99.22
2022-11-16T20:15:27.200Z,99.89
2022-11-16T20:17:53.902Z,99.36
2022-11-16T20:20:20.458Z,99.29
2022-11-16T20:22:47.324Z,99.24
2022-11-16T20:25:14.193Z,99.71
2022-11-16T20:27:40.675Z,99.42
2022-11-16T20:30:09.755Z,99.53
2022-11-16T20:32:36.555Z,99.34
2022-11-16T20:35:03.113Z,99.34
2022-11-16T20:37:29.579Z,98.80
2022-11-16T20:39:57.167Z,98.32
2022-11-16T20:42:24.016Z,99.17
2022-11-16T20:44:50.562Z,98.94
2022-11-16T20:47:17.115Z,98.90
2022-11-16T20:49:43.597Z,99.10
2022-11-16T20:52:10.132Z,99.06
2022-11-16T20:54:36.644Z,99.72
2022-11-16T20:57:03.228Z,98.55
2022-11-16T20:59:29.778Z,97.76
2022-11-16T21:01:56.305Z,98.82
2022-11-16T21:04:22.825Z,98.90
2022-11-16T21:06:49.445Z,99.05
2022-11-16T21:09:22.073Z,100.00
2022-11-16T21:12:07.403Z,100.00
2022-11-16T21:14:33.944Z,100.00
2022-11-16T21:17:00.457Z,100.00
2022-11-16T21:19:27.008Z,100.00
2022-11-16T21:21:53.517Z,99.25
2022-11-16T21:24:20.096Z,99.79
2022-11-16T21:26:46.555Z,99.62
2022-11-16T21:29:13.152Z,100.00
2022-11-16T21:31:39.745Z,100.00
2022-11-16T21:34:07.302Z,100.00
2022-11-16T21:36:33.904Z,100.00
2022-11-16T21:39:00.468Z,99.45
2022-11-16T21:41:27.389Z,98.50
2022-11-16T21:43:53.984Z,98.56
2022-11-16T21:46:21.951Z,99.08
2022-11-16T21:48:48.845Z,98.57
2022-11-16T21:51:16.672Z,97.71
2022-11-16T21:53:43.180Z,98.24
2022-11-16T21:56:13.899Z,98.13
2022-11-16T21:58:40.576Z,97.50
2022-11-16T22:01:07.230Z,97.59
2022-11-16T22:03:34.250Z,98.52
2022-11-16T22:06:21.155Z,99.73
2022-11-16T22:08:48.076Z,100.00
2022-11-16T22:11:15.418Z,100.00
2022-11-16T22:13:42.318Z,100.00
2022-11-16T22:16:12.910Z,100.00
2022-11-16T22:18:39.581Z,100.00
2022-11-16T22:21:06.704Z,100.00
2022-11-16T22:23:33.625Z,99.98
2022-11-16T22:26:04.034Z,100.00
2022-11-16T22:28:31.107Z,100.00
2022-11-16T22:31:08.416Z,99.35
2022-11-16T22:33:35.406Z,98.74
2022-11-16T22:36:02.547Z,100.00
2022-11-16T22:38:29.090Z,100.00
2022-11-16T22:40:56.463Z,100.00
2022-11-16T22:43:24.427Z,100.00
2022-11-16T22:45:50.914Z,100.00
2022-11-16T22:48:17.504Z,100.00
2022-11-16T22:50:44.061Z,100.00
2022-11-16T22:53:10.654Z,100.00
2022-11-16T22:55:37.761Z,100.00
2022-11-16T22:58:05.436Z,100.00
2022-11-16T23:00:34.231Z,100.00
2022-11-16T23:03:04.221Z,100.00
2022-11-16T23:05:30.693Z,100.00
2022-11-16T23:07:57.432Z,100.00
2022-11-16T23:10:24.023Z,100.00
2022-11-16T23:13:09.371Z,100.00
2022-11-16T23:15:50.937Z,99.66
2022-11-16T23:18:19.572Z,99.62
2022-11-16T23:21:04.541Z,99.83
2022-11-16T23:23:49.867Z,97.45
2022-11-16T23:26:40.928Z,97.36
2022-11-16T23:29:10.799Z,98.45
2022-11-16T23:31:37.956Z,100.00
2022-11-16T23:34:04.880Z,99.51
2022-11-16T23:36:31.346Z,100.00
2022-11-16T23:38:58.226Z,100.00
2022-11-16T23:41:43.478Z,100.00
2022-11-16T23:44:09.984Z,100.00
2022-11-16T23:46:36.541Z,100.00
2022-11-16T23:49:03.083Z,100.00
2022-11-16T23:51:29.595Z,100.00
2022-11-16T23:53:56.237Z,100.00
2022-11-16T23:56:22.899Z,100.00
2022-11-16T23:58:49.507Z,100.00
